Time;durP1;ratioP1;P1;durP2;ratioP2;P2;SDS_P1;SDS_P2;PMS_P1;PMS_P2;Temp;Humidity;BMP_temperature;BMP_pressure;BME280_temperature;BME280_humidity;BME280_pressure;Samples;Min_cycle;Max_cycle;Signal;HPM_P1;HPM_P2
2021/09/30 00:00:59;;;;;;;1.37;0.70;;;12.00;99.90;;;;;;5038789;28;20169;-81
2021/09/30 00:03:25;;;;;;;2.13;0.70;;;12.00;99.90;;;;;;5049674;28;20205;-79
2021/09/30 00:05:50;;;;;;;2.37;0.70;;;12.00;99.90;;;;;;5046381;28;20300;-80
2021/09/30 00:08:16;;;;;;;2.50;0.70;;;12.00;99.90;;;;;;5044918;28;20150;-80
2021/09/30 00:10:53;;;;;;;3.63;1.00;;;11.90;99.90;;;;;;5048279;28;20198;-80
2021/09/30 00:13:43;;;;;;;1.98;0.75;;;12.00;99.90;;;;;;5042008;28;20181;-81
2021/09/30 00:32:41;;;;;;;3.60;0.80;;;11.90;99.90;;;;;;5036402;28;20171;-81
2021/09/30 00:35:35;;;;;;;3.60;0.70;;;11.90;99.90;;;;;;5050952;28;20177;-80
2021/09/30 00:49:08;;;;;;;2.75;0.85;;;11.90;99.90;;;;;;4979514;28;20354;-81
2021/09/30 00:54:23;;;;;;;3.85;1.00;;;11.90;99.90;;;;;;5035290;28;20227;-81
2021/09/30 01:23:29;;;;;;;2.05;1.10;;;11.80;99.90;;;;;;5036055;28;20173;-81
2021/09/30 01:30:36;;;;;;;2.90;1.05;;;11.80;99.90;;;;;;5039875;28;20178;-80
2021/09/30 02:19:50;;;;;;;3.15;1.00;;;11.70;99.90;;;;;;5039042;28;20196;-80
2021/09/30 02:22:32;;;;;;;3.80;0.85;;;11.70;99.90;;;;;;5038140;28;20169;-82
2021/09/30 02:58:08;;;;;;;3.22;0.85;;;11.60;99.90;;;;;;5045413;28;20241;-80
2021/09/30 02:58:33;;;;;;;3.22;0.90;;;11.60;99.90;;;;;;5043043;28;20177;-81
2021/09/30 03:01:11;;;;;;;2.20;0.93;;;11.60;99.90;;;;;;5022980;28;20760;-79
2021/09/30 03:03:42;;;;;;;2.17;0.90;;;11.60;99.90;;;;;;5038783;28;20569;-80
2021/09/30 03:06:08;;;;;;;3.35;1.00;;;11.60;99.90;;;;;;5040344;28;20205;-80
2021/09/30 03:08:42;;;;;;;1.70;1.07;;;11.50;99.90;;;;;;5041461;28;20164;-81
2021/09/30 03:11:08;;;;;;;2.17;1.10;;;11.50;99.90;;;;;;5040977;28;20169;-80
2021/09/30 03:13:35;;;;;;;3.35;1.33;;;11.50;99.90;;;;;;5046198;28;20166;-80
2021/09/30 03:16:09;;;;;;;3.38;1.00;;;11.50;99.90;;;;;;5036607;28;20182;-81
2021/09/30 03:22:13;;;;;;;3.58;1.45;;;11.40;99.90;;;;;;5034358;28;20173;-80
2021/09/30 03:23:58;;;;;;;2.15;0.98;;;11.40;99.90;;;;;;5031444;28;20181;-81
2021/09/30 03:26:25;;;;;;;4.73;1.17;;;11.30;99.90;;;;;;5015142;28;20715;-81
2021/09/30 03:28:53;;;;;;;3.78;1.40;;;11.30;99.90;;;;;;5032879;28;20616;-80
2021/09/30 03:31:20;;;;;;;2.85;1.00;;;11.30;99.90;;;;;;5035899;28;20669;-81
2021/09/30 03:34:16;;;;;;;5.22;1.10;;;11.20;99.90;;;;;;4996776;28;20293;-80
2021/09/30 03:36:42;;;;;;;3.95;1.00;;;11.20;99.90;;;;;;5032745;28;20663;-80
2021/09/30 03:39:13;;;;;;;2.47;1.00;;;11.10;99.90;;;;;;5030688;28;20197;-81
2021/09/30 03:41:42;;;;;;;2.92;1.20;;;11.10;99.90;;;;;;5032894;28;20586;-80
2021/09/30 03:44:10;;;;;;;3.63;1.00;;;11.10;99.90;;;;;;5036010;28;20208;-80
2021/09/30 03:46:36;;;;;;;2.25;1.00;;;11.10;99.90;;;;;;5031290;28;20584;-80
2021/09/30 03:49:34;;;;;;;2.30;1.30;;;11.00;99.90;;;;;;5031884;28;20220;-81
2021/09/30 03:54:38;;;;;;;3.70;0.80;;;11.00;99.90;;;;;;5033803;28;20645;-82
2021/09/30 03:57:10;;;;;;;2.55;0.85;;;11.00;99.90;;;;;;5032775;28;20169;-80
2021/09/30 03:59:37;;;;;;;3.58;0.95;;;11.00;99.90;;;;;;5033070;28;20189;-80
2021/09/30 04:02:35;;;;;;;3.58;0.90;;;10.90;99.90;;;;;;4998837;28;20213;-81
2021/09/30 04:05:00;;;;;;;2.83;0.83;;;10.90;99.90;;;;;;5032131;28;20285;-80
2021/09/30 04:07:27;;;;;;;1.95;1.05;;;10.90;99.90;;;;;;5048960;28;20170;-80
2021/09/30 04:09:54;;;;;;;2.05;0.80;;;10.80;99.90;;;;;;5029498;28;20194;-80
2021/09/30 04:12:21;;;;;;;3.08;0.82;;;10.80;99.90;;;;;;5032862;28;20173;-80
2021/09/30 04:14:46;;;;;;;4.57;0.83;;;10.80;99.90;;;;;;5033946;28;20158;-80
2021/09/30 04:17:13;;;;;;;3.05;0.90;;;10.80;99.90;;;;;;5033170;28;20173;-80
2021/09/30 04:19:40;;;;;;;1.58;0.70;;;10.80;99.90;;;;;;5033114;28;20616;-80
2021/09/30 04:22:06;;;;;;;2.03;0.77;;;10.80;99.90;;;;;;5034719;28;20549;-80
2021/09/30 04:24:32;;;;;;;2.83;0.90;;;10.80;99.90;;;;;;5034775;28;20232;-80
2021/09/30 04:26:59;;;;;;;4.55;1.08;;;10.80;99.90;;;;;;5035094;28;20172;-80
2021/09/30 04:29:26;;;;;;;2.08;0.90;;;10.80;99.90;;;;;;5034836;28;20182;-80
2021/09/30 04:31:53;;;;;;;5.03;1.23;;;10.80;99.90;;;;;;5035085;28;20213;-80
2021/09/30 04:34:19;;;;;;;3.20;1.10;;;10.80;99.90;;;;;;5036808;28;20165;-80
2021/09/30 04:36:46;;;;;;;5.13;1.02;;;10.80;99.90;;;;;;5035902;28;20559;-80
2021/09/30 04:39:13;;;;;;;2.78;0.90;;;10.80;99.90;;;;;;5049098;22;20201;-81
2021/09/30 04:41:39;;;;;;;4.95;0.88;;;10.80;99.90;;;;;;5035061;28;20193;-81
2021/09/30 04:44:07;;;;;;;3.08;0.73;;;10.90;99.90;;;;;;5030150;28;20252;-81
2021/09/30 04:46:34;;;;;;;4.55;0.88;;;10.90;99.90;;;;;;5030354;28;20288;-82
2021/09/30 04:49:18;;;;;;;1.77;0.90;;;10.90;99.90;;;;;;5030110;28;20190;-81
2021/09/30 04:51:44;;;;;;;2.57;1.17;;;11.00;99.90;;;;;;5013966;28;20204;-81
2021/09/30 04:54:10;;;;;;;2.93;0.97;;;11.00;99.90;;;;;;5030463;28;20177;-81
2021/09/30 04:56:36;;;;;;;3.70;1.03;;;11.00;99.90;;;;;;5030351;28;20975;-80
2021/09/30 04:59:10;;;;;;;2.05;0.80;;;11.10;99.90;;;;;;5030030;28;20176;-80
2021/09/30 05:01:38;;;;;;;3.33;1.10;;;11.10;99.90;;;;;;5013833;28;20260;-82
2021/09/30 05:04:09;;;;;;;3.50;1.27;;;11.00;99.90;;;;;;5030473;28;20583;-81
2021/09/30 05:06:34;;;;;;;1.50;0.80;;;11.10;99.90;;;;;;5030207;28;20162;-81
2021/09/30 05:09:01;;;;;;;3.67;0.90;;;11.00;99.90;;;;;;5030152;28;20174;-81
2021/09/30 05:11:32;;;;;;;3.22;0.98;;;11.00;99.90;;;;;;5030002;28;20166;-80
2021/09/30 05:13:59;;;;;;;3.25;1.10;;;11.00;99.90;;;;;;5030112;28;20196;-80
2021/09/30 05:16:25;;;;;;;4.05;0.93;;;11.00;99.90;;;;;;5030140;28;20596;-81
2021/09/30 05:19:11;;;;;;;2.55;0.82;;;11.00;99.90;;;;;;5027636;28;20225;-81
2021/09/30 05:21:37;;;;;;;4.20;1.00;;;11.00;99.90;;;;;;5013832;28;20538;-82
2021/09/30 05:24:03;;;;;;;4.80;1.00;;;11.00;99.90;;;;;;5030373;28;20564;-80
2021/09/30 05:26:29;;;;;;;1.77;0.80;;;11.10;99.90;;;;;;5031268;28;20168;-80
2021/09/30 05:28:57;;;;;;;5.90;1.15;;;11.10;99.90;;;;;;5029804;28;20564;-80
2021/09/30 05:31:24;;;;;;;2.38;0.77;;;11.20;99.90;;;;;;5013005;28;20227;-79
2021/09/30 05:34:09;;;;;;;3.85;1.10;;;11.20;99.90;;;;;;5016081;28;20197;-82
2021/09/30 05:36:35;;;;;;;2.47;1.00;;;11.30;99.90;;;;;;4997091;28;20220;-82
2021/09/30 05:39:01;;;;;;;3.27;0.80;;;11.30;99.90;;;;;;5030064;28;20572;-81
2021/09/30 05:41:30;;;;;;;2.45;0.80;;;11.40;99.90;;;;;;5012768;28;20699;-81
2021/09/30 05:43:58;;;;;;;2.78;0.75;;;11.40;99.90;;;;;;5014487;28;20174;-82
2021/09/30 05:46:36;;;;;;;4.13;1.00;;;11.40;99.90;;;;;;5033491;28;20174;-82
2021/09/30 05:49:04;;;;;;;4.10;1.10;;;11.40;99.90;;;;;;5017240;28;20193;-82
2021/09/30 05:51:30;;;;;;;2.45;0.80;;;11.40;99.90;;;;;;5000336;28;20173;-82
2021/09/30 05:54:19;;;;;;;4.03;1.13;;;11.30;99.90;;;;;;5033476;28;20169;-83
2021/09/30 05:56:52;;;;;;;1.40;0.80;;;11.30;99.90;;;;;;5037140;28;20185;-83
2021/09/30 05:59:21;;;;;;;6.37;1.50;;;11.30;99.90;;;;;;5032926;28;20185;-83
2021/09/30 06:12:47;;;;;;;4.07;1.40;;;11.40;99.90;;;;;;5033324;28;20223;-81
2021/09/30 06:15:15;;;;;;;5.53;1.42;;;11.40;99.90;;;;;;5034051;28;20637;-81
2021/09/30 06:17:45;;;;;;;7.28;1.45;;;11.40;99.90;;;;;;5015834;28;20260;-81
2021/09/30 06:20:15;;;;;;;3.20;1.10;;;11.50;99.90;;;;;;5015316;28;20284;-82
2021/09/30 06:22:41;;;;;;;3.03;1.13;;;11.50;99.90;;;;;;5032322;28;20201;-81
2021/09/30 06:25:08;;;;;;;3.07;1.43;;;11.50;99.90;;;;;;5032696;28;20245;-82
2021/09/30 06:27:34;;;;;;;4.65;1.35;;;11.50;99.90;;;;;;5017119;28;20588;-82
2021/09/30 06:30:01;;;;;;;5.50;1.85;;;11.50;99.90;;;;;;5015608;28;20194;-81
2021/09/30 06:32:30;;;;;;;2.38;1.25;;;11.60;99.90;;;;;;5021125;28;20914;-81
2021/09/30 06:35:28;;;;;;;3.33;1.15;;;11.60;99.90;;;;;;4991033;28;20178;-82
2021/09/30 06:37:54;;;;;;;4.27;1.30;;;11.70;99.90;;;;;;5018360;28;20219;-83
2021/09/30 06:40:22;;;;;;;4.07;1.30;;;11.70;99.90;;;;;;5016480;28;20292;-81
2021/09/30 06:42:50;;;;;;;3.88;1.40;;;11.70;99.90;;;;;;5033192;28;20304;-81
2021/09/30 06:45:50;;;;;;;3.13;1.40;;;11.80;99.90;;;;;;5032735;28;20201;-82
2021/09/30 06:48:37;;;;;;;4.28;1.10;;;11.90;99.90;;;;;;5032012;28;20166;-81
2021/09/30 06:51:10;;;;;;;3.88;1.10;;;12.10;99.90;;;;;;5032655;28;20601;-81
2021/09/30 06:53:45;;;;;;;4.68;1.50;;;12.10;99.90;;;;;;5032779;28;20169;-81
2021/09/30 06:56:19;;;;;;;2.90;1.20;;;12.20;99.90;;;;;;5031515;28;20478;-81
2021/09/30 06:59:08;;;;;;;5.63;1.30;;;12.30;99.90;;;;;;5031864;28;20200;-81
2021/09/30 07:01:53;;;;;;;3.00;1.63;;;12.40;99.90;;;;;;5033410;28;20178;-81
2021/09/30 07:04:37;;;;;;;2.60;1.20;;;12.50;99.90;;;;;;5034313;28;20197;-81
2021/09/30 07:07:22;;;;;;;3.88;1.42;;;12.60;99.90;;;;;;5033819;28;20170;-81
2021/09/30 07:09:48;;;;;;;3.97;1.57;;;12.60;99.90;;;;;;5019814;28;20281;-80
2021/09/30 07:12:13;;;;;;;2.33;1.00;;;12.70;99.90;;;;;;5014655;28;20579;-81
2021/09/30 07:14:40;;;;;;;6.40;1.00;;;12.80;99.90;;;;;;5014996;28;20615;-81
2021/09/30 07:17:06;;;;;;;2.40;0.95;;;12.90;99.90;;;;;;5031848;28;20169;-81
2021/09/30 07:19:33;;;;;;;4.57;1.30;;;12.90;99.90;;;;;;5032539;28;20190;-81
2021/09/30 07:22:00;;;;;;;2.47;0.95;;;13.00;99.90;;;;;;5032583;28;20628;-81
2021/09/30 07:24:26;;;;;;;4.15;1.75;;;13.10;99.90;;;;;;5014846;28;20241;-81
2021/09/30 07:26:52;;;;;;;3.27;0.90;;;13.30;99.90;;;;;;5031167;28;20212;-81
2021/09/30 07:29:18;;;;;;;4.73;1.47;;;13.40;99.90;;;;;;5032389;28;20189;-81
2021/09/30 07:31:46;;;;;;;2.77;1.10;;;13.50;99.90;;;;;;5014749;28;20583;-82
2021/09/30 07:34:11;;;;;;;3.90;1.60;;;13.60;99.90;;;;;;5015281;28;20216;-81
2021/09/30 07:36:42;;;;;;;5.80;1.30;;;14.00;99.90;;;;;;5032606;28;20564;-82
2021/09/30 07:39:09;;;;;;;3.77;1.10;;;14.60;99.90;;;;;;5016042;28;20572;-79
2021/09/30 07:41:36;;;;;;;4.47;1.53;;;15.40;99.90;;;;;;5034589;28;20606;-82
2021/09/30 07:44:03;;;;;;;3.87;1.30;;;16.20;99.90;;;;;;5016311;28;20576;-82
2021/09/30 07:46:34;;;;;;;3.43;1.07;;;17.20;99.90;;;;;;5022423;28;20586;-82
2021/09/30 07:49:00;;;;;;;3.27;0.80;;;18.00;99.90;;;;;;5034544;28;20684;-82
2021/09/30 07:51:26;;;;;;;4.23;1.20;;;18.90;99.90;;;;;;5032309;28;20668;-81
2021/09/30 07:53:53;;;;;;;4.60;1.20;;;19.90;99.90;;;;;;5032538;28;21019;-80
2021/09/30 07:56:19;;;;;;;3.63;1.20;;;20.90;99.90;;;;;;5032615;28;20170;-79
2021/09/30 07:58:44;;;;;;;3.60;0.90;;;21.90;99.90;;;;;;5031232;28;20937;-80
2021/09/30 08:01:10;;;;;;;3.30;1.00;;;22.90;99.90;;;;;;5030646;28;20193;-80
2021/09/30 08:03:36;;;;;;;2.80;1.17;;;23.70;99.90;;;;;;5014281;28;20170;-80
2021/09/30 08:06:02;;;;;;;4.17;1.23;;;24.20;99.90;;;;;;5013652;28;20216;-80
2021/09/30 08:08:27;;;;;;;5.50;1.50;;;24.60;99.90;;;;;;5014082;28;20534;-80
2021/09/30 08:10:53;;;;;;;2.23;0.90;;;25.10;99.90;;;;;;5030819;28;20666;-81
2021/09/30 08:13:19;;;;;;;2.03;0.73;;;25.40;99.90;;;;;;5016007;28;20260;-81
2021/09/30 08:15:45;;;;;;;3.23;0.80;;;25.80;99.90;;;;;;5033274;28;20179;-81
2021/09/30 08:18:11;;;;;;;2.57;0.80;;;26.40;99.90;;;;;;5001403;28;20281;-81
2021/09/30 08:20:43;;;;;;;3.20;1.63;;;26.80;99.90;;;;;;5016021;28;20645;-80
2021/09/30 08:23:14;;;;;;;3.30;0.80;;;27.20;99.90;;;;;;5037315;28;20199;-81
2021/09/30 08:25:41;;;;;;;4.30;0.73;;;27.30;99.90;;;;;;5032764;28;20620;-80
2021/09/30 08:28:09;;;;;;;2.73;0.80;;;27.30;99.90;;;;;;5015975;28;20709;-81
2021/09/30 08:30:36;;;;;;;3.03;0.80;;;27.20;99.90;;;;;;5014450;28;20673;-81
2021/09/30 08:33:03;;;;;;;2.10;0.70;;;27.30;99.90;;;;;;5030973;28;20573;-82
2021/09/30 08:35:28;;;;;;;2.63;1.00;;;27.60;99.90;;;;;;5014598;28;20570;-82
2021/09/30 08:37:55;;;;;;;2.00;0.70;;;27.80;99.50;;;;;;5032591;28;20567;-79
2021/09/30 08:40:20;;;;;;;1.93;0.80;;;27.80;97.90;;;;;;5032543;28;21034;-79
2021/09/30 08:42:49;;;;;;;3.40;0.93;;;27.60;96.80;;;;;;5034101;28;20601;-78
2021/09/30 08:45:20;;;;;;;2.97;1.00;;;27.40;95.80;;;;;;5034558;28;20214;-79
2021/09/30 08:47:56;;;;;;;2.30;0.80;;;27.20;95.10;;;;;;5031917;28;20604;-80
2021/09/30 08:50:22;;;;;;;1.50;0.67;;;27.00;94.80;;;;;;5015492;28;20613;-80
2021/09/30 08:52:48;;;;;;;3.53;0.80;;;27.00;95.40;;;;;;5031354;28;20590;-80
2021/09/30 08:55:14;;;;;;;3.30;1.00;;;27.00;95.00;;;;;;5030931;28;20593;-80
2021/09/30 08:57:45;;;;;;;3.00;0.87;;;27.00;94.70;;;;;;5031043;28;20181;-81
2021/09/30 09:00:11;;;;;;;2.67;1.03;;;27.20;94.00;;;;;;5036403;28;20610;-79
2021/09/30 09:02:41;;;;;;;3.20;1.00;;;27.50;94.40;;;;;;5015309;28;20575;-79
2021/09/30 09:05:08;;;;;;;2.47;0.80;;;27.80;94.10;;;;;;5031503;28;20621;-80
2021/09/30 09:07:33;;;;;;;2.30;0.83;;;28.20;94.00;;;;;;5029821;28;20573;-79
2021/09/30 09:10:04;;;;;;;5.00;0.90;;;28.70;93.70;;;;;;5031257;28;20584;-79
2021/09/30 09:12:33;;;;;;;1.40;0.60;;;29.30;92.90;;;;;;5035166;28;20204;-79
2021/09/30 09:15:00;;;;;;;2.47;0.73;;;29.80;92.40;;;;;;5032061;28;20624;-80
2021/09/30 09:17:26;;;;;;;2.47;0.87;;;30.10;91.20;;;;;;5034223;28;20588;-79
2021/09/30 09:19:55;;;;;;;1.83;0.87;;;30.50;90.60;;;;;;5034400;28;20601;-80
2021/09/30 09:22:25;;;;;;;4.63;1.20;;;30.80;88.70;;;;;;5017910;28;20586;-80
2021/09/30 09:25:03;;;;;;;3.30;1.00;;;31.20;87.20;;;;;;5036432;28;20614;-80
2021/09/30 09:27:44;;;;;;;1.90;0.80;;;31.70;84.60;;;;;;5034228;28;20577;-78
2021/09/30 09:30:32;;;;;;;2.43;0.83;;;32.20;84.20;;;;;;5034894;28;20645;-78
2021/09/30 09:33:15;;;;;;;4.33;0.93;;;32.70;83.10;;;;;;4991437;28;20661;-79
2021/09/30 09:36:10;;;;;;;3.67;0.90;;;33.10;77.70;;;;;;5033209;28;20660;-79
2021/09/30 09:38:42;;;;;;;1.90;0.73;;;33.60;78.60;;;;;;5020543;28;20584;-79
2021/09/30 09:41:09;;;;;;;2.87;0.90;;;34.00;74.00;;;;;;5032532;28;20682;-80
2021/09/30 09:43:41;;;;;;;2.83;0.90;;;34.20;72.90;;;;;;5034228;28;20590;-79
2021/09/30 09:46:09;;;;;;;2.10;0.90;;;34.40;66.90;;;;;;5034238;28;20606;-80
2021/09/30 09:48:36;;;;;;;2.50;0.97;;;34.40;65.70;;;;;;5017866;28;20603;-79
2021/09/30 09:51:11;;;;;;;2.50;1.00;;;34.10;62.50;;;;;;5034233;28;20607;-79
2021/09/30 09:53:39;;;;;;;2.50;1.37;;;33.80;59.80;;;;;;5035640;28;20584;-78
2021/09/30 09:56:16;;;;;;;3.17;1.27;;;33.20;59.20;;;;;;5033988;28;20628;-79
2021/09/30 09:58:57;;;;;;;2.33;1.10;;;32.60;57.90;;;;;;5018340;28;20683;-79
2021/09/30 10:01:26;;;;;;;2.40;0.80;;;32.10;59.10;;;;;;5033605;28;20573;-79
2021/09/30 10:03:58;;;;;;;1.80;0.70;;;31.50;58.00;;;;;;5018215;28;20573;-79
2021/09/30 10:06:25;;;;;;;2.53;0.70;;;30.70;57.30;;;;;;5035247;28;20695;-78
2021/09/30 10:08:52;;;;;;;4.07;0.90;;;29.80;56.70;;;;;;5033379;28;20956;-80
2021/09/30 10:11:18;;;;;;;6.07;0.80;;;29.00;56.40;;;;;;5033872;28;20601;-81
2021/09/30 10:13:44;;;;;;;2.37;0.80;;;28.20;56.60;;;;;;5038887;28;20631;-79
2021/09/30 10:16:15;;;;;;;2.20;1.10;;;27.70;57.30;;;;;;5037333;28;20627;-79
2021/09/30 10:18:41;;;;;;;2.30;0.93;;;27.10;56.90;;;;;;5036882;28;20941;-80
2021/09/30 10:21:10;;;;;;;2.47;0.90;;;26.80;58.20;;;;;;5036277;28;20592;-80
2021/09/30 10:23:36;;;;;;;3.77;0.93;;;26.60;59.10;;;;;;5035784;28;21095;-81
2021/09/30 10:26:19;;;;;;;4.80;0.70;;;26.50;59.30;;;;;;5036130;28;21014;-80
2021/09/30 10:28:46;;;;;;;3.03;0.80;;;26.40;58.70;;;;;;5034849;28;21190;-82
2021/09/30 10:31:24;;;;;;;2.37;0.80;;;26.40;59.40;;;;;;5032169;28;20643;-81
2021/09/30 10:33:50;;;;;;;2.73;0.90;;;26.30;58.60;;;;;;5033543;28;20595;-80
2021/09/30 10:36:37;;;;;;;3.67;0.90;;;26.10;58.60;;;;;;5031813;28;20625;-80
2021/09/30 10:39:22;;;;;;;1.93;0.77;;;25.90;58.10;;;;;;5033453;28;20613;-80
2021/09/30 10:41:49;;;;;;;3.20;1.10;;;25.90;58.70;;;;;;5032773;28;20637;-80
2021/09/30 10:44:18;;;;;;;2.37;0.80;;;25.90;59.60;;;;;;5033296;28;20671;-80
2021/09/30 10:46:46;;;;;;;2.17;0.77;;;25.90;59.80;;;;;;5036110;28;21097;-80
2021/09/30 10:49:30;;;;;;;2.70;0.70;;;25.90;59.20;;;;;;5035029;28;20560;-79
2021/09/30 10:52:14;;;;;;;3.50;0.60;;;25.90;58.90;;;;;;5036392;28;20978;-78
2021/09/30 10:54:50;;;;;;;2.80;0.70;;;26.10;58.70;;;;;;5033007;28;20987;-78
2021/09/30 10:57:46;;;;;;;2.57;0.70;;;26.30;59.20;;;;;;5037126;28;20615;-79
2021/09/30 11:00:33;;;;;;;4.33;0.80;;;26.50;59.90;;;;;;5034214;28;20639;-77
2021/09/30 11:03:02;;;;;;;1.83;0.70;;;26.80;59.50;;;;;;5034199;28;20592;-78
2021/09/30 11:05:33;;;;;;;2.20;0.60;;;27.10;60.70;;;;;;5034972;28;20603;-79
2021/09/30 11:08:18;;;;;;;4.30;0.90;;;27.30;59.40;;;;;;5033981;28;20631;-78
2021/09/30 11:11:11;;;;;;;2.90;0.80;;;27.50;58.40;;;;;;5033999;28;20627;-78
2021/09/30 11:13:43;;;;;;;1.93;0.87;;;27.60;58.10;;;;;;5035769;28;20619;-78
2021/09/30 11:16:20;;;;;;;2.80;1.20;;;27.70;57.50;;;;;;5001898;28;20639;-78
2021/09/30 11:18:58;;;;;;;2.90;1.10;;;27.50;56.60;;;;;;5038217;28;20565;-79
2021/09/30 11:21:45;;;;;;;4.97;2.67;;;27.20;55.30;;;;;;5020236;28;21157;-80
2021/09/30 11:24:22;;;;;;;5.73;1.40;;;26.80;55.60;;;;;;5036939;28;20930;-80
2021/09/30 11:26:48;;;;;;;3.50;1.10;;;26.40;54.80;;;;;;5031562;28;20607;-79
2021/09/30 11:29:20;;;;;;;1.87;1.17;;;26.10;55.30;;;;;;5034775;28;20588;-80
2021/09/30 11:32:09;;;;;;;2.83;1.27;;;25.70;55.10;;;;;;5031133;28;20569;-79
2021/09/30 11:34:45;;;;;;;1.80;1.40;;;25.30;55.60;;;;;;5016037;28;21043;-80
2021/09/30 11:37:19;;;;;;;7.80;0.80;;;25.00;55.40;;;;;;5017256;28;20595;-80
2021/09/30 11:39:49;;;;;;;3.63;1.00;;;24.70;55.40;;;;;;5015076;28;20972;-80
2021/09/30 11:42:17;;;;;;;2.40;0.80;;;24.40;55.40;;;;;;5032511;28;20600;-81
2021/09/30 11:45:00;;;;;;;3.70;1.00;;;24.20;55.50;;;;;;5038727;28;20711;-81
2021/09/30 11:47:29;;;;;;;2.00;1.00;;;23.90;55.70;;;;;;5037977;28;20623;-81
2021/09/30 11:49:56;;;;;;;3.40;1.70;;;23.80;56.10;;;;;;5036045;28;20938;-81
2021/09/30 11:52:22;;;;;;;4.20;1.40;;;23.60;56.20;;;;;;5035922;28;20638;-81
2021/09/30 11:54:48;;;;;;;3.03;0.70;;;23.50;56.40;;;;;;5037379;28;20675;-81
2021/09/30 11:57:20;;;;;;;2.63;0.67;;;23.50;56.80;;;;;;5037439;28;20600;-81
2021/09/30 11:59:47;;;;;;;3.80;0.77;;;23.50;56.70;;;;;;5035766;28;20616;-81
2021/09/30 12:02:13;;;;;;;2.47;0.70;;;23.50;56.90;;;;;;5035003;28;20671;-81
2021/09/30 12:07:24;;;;;;;2.70;0.70;;;23.40;56.60;;;;;;5035421;28;20611;-81
2021/09/30 12:09:58;;;;;;;5.20;0.90;;;23.30;56.40;;;;;;5033903;28;20627;-81
2021/09/30 12:12:34;;;;;;;2.47;0.90;;;23.40;56.80;;;;;;5034130;28;20568;-80
2021/09/30 12:15:04;;;;;;;2.33;0.70;;;23.40;56.50;;;;;;5033612;28;20635;-79
2021/09/30 12:17:35;;;;;;;3.50;1.00;;;23.40;56.80;;;;;;5031786;28;20564;-79
2021/09/30 12:20:04;;;;;;;1.93;0.80;;;23.30;56.60;;;;;;5031380;28;20690;-79
2021/09/30 12:22:36;;;;;;;4.27;0.63;;;23.30;56.90;;;;;;4997561;28;20573;-79
2021/09/30 12:25:12;;;;;;;3.10;0.70;;;23.20;56.50;;;;;;5014882;28;20577;-79
2021/09/30 12:27:40;;;;;;;4.30;1.07;;;23.10;56.50;;;;;;5031636;28;20572;-79
2021/09/30 12:30:20;;;;;;;3.30;1.03;;;23.00;56.80;;;;;;4999785;28;20605;-79
2021/09/30 12:32:48;;;;;;;2.47;0.70;;;22.90;56.70;;;;;;5036000;28;20579;-79
2021/09/30 12:35:26;;;;;;;2.93;0.97;;;22.90;56.90;;;;;;5035745;28;20684;-79
2021/09/30 12:37:59;;;;;;;2.57;0.90;;;22.90;57.10;;;;;;5016949;28;20584;-80
2021/09/30 12:40:40;;;;;;;1.80;0.60;;;22.90;57.40;;;;;;5033124;28;20623;-81
2021/09/30 12:43:12;;;;;;;2.33;0.57;;;22.90;57.20;;;;;;5036983;28;20607;-80
2021/09/30 12:45:59;;;;;;;1.30;0.50;;;23.00;57.10;;;;;;5015749;28;20584;-80
2021/09/30 12:48:29;;;;;;;4.67;0.73;;;23.00;56.90;;;;;;5032125;28;21120;-81
2021/09/30 12:51:00;;;;;;;1.80;0.60;;;23.00;56.80;;;;;;5031488;28;20707;-80
2021/09/30 12:53:28;;;;;;;5.70;0.80;;;23.00;56.60;;;;;;5030883;28;20576;-80
2021/09/30 12:56:08;;;;;;;2.90;0.90;;;22.90;56.40;;;;;;5038255;28;20896;-81
2021/09/30 12:58:45;;;;;;;5.93;3.03;;;22.80;55.90;;;;;;5027655;28;20582;-80
2021/09/30 13:01:35;;;;;;;3.03;1.50;;;22.70;56.00;;;;;;5016493;28;20658;-80
2021/09/30 13:04:12;;;;;;;3.73;1.70;;;22.60;56.30;;;;;;5036298;28;20604;-82
2021/09/30 13:07:02;;;;;;;4.90;1.77;;;22.50;56.40;;;;;;5036048;28;20563;-80
2021/09/30 13:09:30;;;;;;;2.60;1.10;;;22.30;56.20;;;;;;5035932;28;20607;-80
2021/09/30 13:12:17;;;;;;;3.10;0.77;;;22.20;56.20;;;;;;5037910;28;20588;-79
2021/09/30 13:14:52;;;;;;;4.10;0.73;;;22.10;56.40;;;;;;5018228;28;20723;-79
2021/09/30 13:17:30;;;;;;;2.50;0.70;;;22.00;56.30;;;;;;5018511;28;20568;-81
2021/09/30 13:20:07;;;;;;;1.67;0.60;;;21.90;56.50;;;;;;5038348;28;20595;-81
2021/09/30 13:22:35;;;;;;;1.80;0.60;;;21.80;56.60;;;;;;5021163;28;20576;-80
2021/09/30 13:25:11;;;;;;;3.23;0.80;;;21.80;56.80;;;;;;5022309;28;20916;-80
2021/09/30 13:27:40;;;;;;;2.70;0.77;;;21.70;56.20;;;;;;5018901;28;20679;-80
2021/09/30 13:30:15;;;;;;;3.37;1.00;;;21.60;56.50;;;;;;5037099;28;20598;-81
2021/09/30 13:32:42;;;;;;;4.03;1.80;;;21.40;56.30;;;;;;5019681;28;20572;-77
2021/09/30 13:35:08;;;;;;;3.13;1.33;;;21.30;56.40;;;;;;5032837;28;20610;-76
2021/09/30 13:37:35;;;;;;;4.10;0.93;;;21.20;56.50;;;;;;5034078;28;20568;-76
2021/09/30 13:40:05;;;;;;;2.07;0.87;;;21.10;56.60;;;;;;5032649;28;20612;-76
2021/09/30 13:42:33;;;;;;;3.70;1.00;;;21.00;56.80;;;;;;5033389;28;20919;-77
2021/09/30 13:45:00;;;;;;;2.60;0.97;;;20.90;57.00;;;;;;5035101;28;21201;-78
2021/09/30 13:47:28;;;;;;;4.47;0.80;;;20.90;57.20;;;;;;5033059;28;21339;-79
2021/09/30 13:49:55;;;;;;;3.77;0.80;;;20.80;57.40;;;;;;5033619;28;20600;-78
2021/09/30 13:52:22;;;;;;;1.97;0.60;;;20.70;57.60;;;;;;5034013;28;20576;-78
2021/09/30 13:54:48;;;;;;;3.40;0.70;;;20.70;57.70;;;;;;5033744;28;20628;-78
2021/09/30 13:57:13;;;;;;;2.33;0.70;;;20.60;57.60;;;;;;5037117;28;20638;-78
2021/09/30 13:59:40;;;;;;;2.00;0.60;;;20.50;57.80;;;;;;5033955;28;20591;-77
2021/09/30 14:02:07;;;;;;;3.53;0.80;;;20.50;57.90;;;;;;5034318;28;20256;-78
2021/09/30 14:04:35;;;;;;;2.73;0.60;;;20.40;57.90;;;;;;5031716;28;20901;-78
2021/09/30 14:07:06;;;;;;;1.40;0.60;;;20.40;58.10;;;;;;5034101;28;20660;-77
2021/09/30 14:09:33;;;;;;;2.67;0.60;;;20.40;58.20;;;;;;5032440;28;20597;-78
2021/09/30 14:12:00;;;;;;;2.60;0.63;;;20.40;58.30;;;;;;5032951;28;20568;-78
2021/09/30 14:14:26;;;;;;;1.60;0.60;;;20.40;58.30;;;;;;5033739;28;20588;-77
2021/09/30 14:16:51;;;;;;;2.23;0.60;;;20.40;58.50;;;;;;5034043;28;20934;-77
2021/09/30 14:19:18;;;;;;;1.20;0.50;;;20.40;58.60;;;;;;5033623;28;20186;-77
2021/09/30 14:21:45;;;;;;;1.50;0.50;;;20.40;58.80;;;;;;5032652;28;20181;-77
2021/09/30 14:24:11;;;;;;;1.77;0.53;;;20.50;59.00;;;;;;5033260;28;20597;-77
2021/09/30 14:26:37;;;;;;;2.20;0.70;;;20.50;59.10;;;;;;5034421;28;21111;-78
2021/09/30 14:29:04;;;;;;;1.70;0.60;;;20.50;59.20;;;;;;5033588;28;20959;-78
2021/09/30 14:31:30;;;;;;;3.07;1.00;;;20.50;59.30;;;;;;5034059;28;20596;-77
2021/09/30 14:33:56;;;;;;;2.23;0.67;;;20.60;59.40;;;;;;5038616;28;21005;-76
2021/09/30 14:36:21;;;;;;;2.67;1.13;;;20.60;59.60;;;;;;5033416;28;20681;-76
2021/09/30 14:38:47;;;;;;;3.20;1.20;;;20.60;59.80;;;;;;5033912;28;20540;-77
2021/09/30 14:41:13;;;;;;;2.70;1.03;;;20.70;59.90;;;;;;5031714;28;20573;-77
2021/09/30 14:43:39;;;;;;;2.37;0.63;;;20.70;59.80;;;;;;5032347;28;20205;-77
2021/09/30 14:46:07;;;;;;;2.90;0.70;;;20.70;59.80;;;;;;5033173;28;20657;-77
2021/09/30 14:48:34;;;;;;;2.07;0.50;;;20.60;59.50;;;;;;5033484;28;20173;-78
2021/09/30 14:51:01;;;;;;;1.33;0.60;;;20.60;59.50;;;;;;5031600;28;20587;-77
2021/09/30 14:53:28;;;;;;;1.77;0.67;;;20.50;59.40;;;;;;5032221;28;20580;-78
2021/09/30 14:55:54;;;;;;;3.93;0.70;;;20.50;59.30;;;;;;5032096;28;20580;-77
2021/09/30 14:58:19;;;;;;;3.00;0.80;;;20.50;59.30;;;;;;5033702;28;20976;-76
2021/09/30 15:00:45;;;;;;;1.50;0.50;;;20.40;59.20;;;;;;5033557;28;20790;-76
2021/09/30 15:03:11;;;;;;;1.83;0.70;;;20.40;59.30;;;;;;5034232;28;20166;-77
2021/09/30 15:05:36;;;;;;;3.97;0.60;;;20.30;59.40;;;;;;5033183;28;20189;-77
2021/09/30 15:08:03;;;;;;;1.67;0.50;;;20.30;59.60;;;;;;5033142;28;20165;-76
2021/09/30 15:10:30;;;;;;;3.43;0.60;;;20.20;59.60;;;;;;5034433;28;20581;-77
2021/09/30 15:12:56;;;;;;;1.70;0.50;;;20.20;59.70;;;;;;5032016;28;20557;-76
2021/09/30 15:15:22;;;;;;;3.70;1.23;;;20.10;59.80;;;;;;5033852;28;20568;-76
2021/09/30 15:17:58;;;;;;;3.00;0.70;;;20.10;59.80;;;;;;5036265;28;20569;-75
2021/09/30 15:23:05;;;;;;;2.30;0.80;;;20.00;60.10;;;;;;5040114;28;20572;-77
2021/09/30 15:25:31;;;;;;;2.63;0.60;;;19.90;60.10;;;;;;5033310;28;21049;-76
2021/09/30 15:27:59;;;;;;;2.20;0.73;;;19.90;60.40;;;;;;5032593;28;20568;-76
2021/09/30 15:30:25;;;;;;;2.70;0.70;;;19.80;60.50;;;;;;5031951;28;20190;-76
2021/09/30 15:32:53;;;;;;;1.67;0.60;;;19.80;60.90;;;;;;5032432;28;20631;-76
2021/09/30 15:35:19;;;;;;;2.27;0.60;;;19.70;61.00;;;;;;5030899;28;20572;-76
2021/09/30 15:37:45;;;;;;;1.87;0.60;;;19.70;61.20;;;;;;5047697;23;20744;-75
2021/09/30 15:40:12;;;;;;;2.63;0.60;;;19.60;61.40;;;;;;5050736;28;20592;-74
2021/09/30 15:42:39;;;;;;;1.70;0.70;;;19.60;61.50;;;;;;5050995;28;21121;-75
2021/09/30 15:45:05;;;;;;;1.10;0.50;;;19.50;61.70;;;;;;5051917;28;20623;-74
2021/09/30 15:47:31;;;;;;;5.80;0.80;;;19.50;61.90;;;;;;5064650;28;20599;-75